sensor_id;sensor_type;location;lat;lon;timestamp;temperature;humidity
15916;DHT22;8057;47.830;-3.870;2024-02-14T00:00:25;12.70;99.90
15916;DHT22;8057;47.830;-3.870;2024-02-14T00:04:35;12.70;99.90
15916;DHT22;8057;47.830;-3.870;2024-02-14T00:08:46;12.70;99.90
15916;DHT22;8057;47.830;-3.870;2024-02-14T00:12:56;12.60;99.90
15916;DHT22;8057;47.830;-3.870;2024-02-14T00:17:06;12.50;99.90
15916;DHT22;8057;47.830;-3.870;2024-02-14T00:21:15;12.60;99.90
15916;DHT22;8057;47.830;-3.870;2024-02-14T00:25:24;12.60;99.90
15916;DHT22;8057;47.830;-3.870;2024-02-14T00:29:34;12.60;99.90
15916;DHT22;8057;47.830;-3.870;2024-02-14T00:33:44;12.60;99.90
15916;DHT22;8057;47.830;-3.870;2024-02-14T00:37:54;12.60;99.90
15916;DHT22;8057;47.830;-3.870;2024-02-14T00:42:03;12.60;99.90
15916;DHT22;8057;47.830;-3.870;2024-02-14T00:46:17;12.60;99.90
15916;DHT22;8057;47.830;-3.870;2024-02-14T00:50:26;12.60;99.90
15916;DHT22;8057;47.830;-3.870;2024-02-14T00:54:35;12.60;99.90
15916;DHT22;8057;47.830;-3.870;2024-02-14T00:58:44;12.60;99.90
15916;DHT22;8057;47.830;-3.870;2024-02-14T01:02:54;12.60;99.90
15916;DHT22;8057;47.830;-3.870;2024-02-14T01:07:05;12.60;99.90
15916;DHT22;8057;47.830;-3.870;2024-02-14T01:11:14;12.60;99.90
15916;DHT22;8057;47.830;-3.870;2024-02-14T01:15:23;12.60;99.90
15916;DHT22;8057;47.830;-3.870;2024-02-14T01:19:33;12.70;99.90
15916;DHT22;8057;47.830;-3.870;2024-02-14T01:23:42;12.70;99.90
15916;DHT22;8057;47.830;-3.870;2024-02-14T01:27:51;12.70;99.90
15916;DHT22;8057;47.830;-3.870;2024-02-14T01:32:01;12.70;99.90
15916;DHT22;8057;47.830;-3.870;2024-02-14T01:36:13;12.70;99.90
15916;DHT22;8057;47.830;-3.870;2024-02-14T01:40:24;12.70;99.90
15916;DHT22;8057;47.830;-3.870;2024-02-14T01:44:33;12.70;99.90
15916;DHT22;8057;47.830;-3.870;2024-02-14T01:48:43;12.70;99.90
15916;DHT22;8057;47.830;-3.870;2024-02-14T01:52:56;12.70;99.90
15916;DHT22;8057;47.830;-3.870;2024-02-14T01:57:06;12.70;99.90
15916;DHT22;8057;47.830;-3.870;2024-02-14T02:01:18;12.60;99.90
15916;DHT22;8057;47.830;-3.870;2024-02-14T02:05:27;12.60;99.90
15916;DHT22;8057;47.830;-3.870;2024-02-14T02:09:38;12.70;99.90
15916;DHT22;8057;47.830;-3.870;2024-02-14T02:13:47;12.80;99.90
15916;DHT22;8057;47.830;-3.870;2024-02-14T02:17:56;12.80;99.90
15916;DHT22;8057;47.830;-3.870;2024-02-14T02:22:07;12.80;99.90
15916;DHT22;8057;47.830;-3.870;2024-02-14T02:26:18;12.80;99.90
15916;DHT22;8057;47.830;-3.870;2024-02-14T02:30:27;12.80;99.90
15916;DHT22;8057;47.830;-3.870;2024-02-14T02:34:37;12.90;99.90
15916;DHT22;8057;47.830;-3.870;2024-02-14T02:38:46;12.80;99.90
15916;DHT22;8057;47.830;-3.870;2024-02-14T02:42:57;12.80;99.90
15916;DHT22;8057;47.830;-3.870;2024-02-14T02:47:07;12.80;99.90
15916;DHT22;8057;47.830;-3.870;2024-02-14T02:51:18;12.80;99.90
15916;DHT22;8057;47.830;-3.870;2024-02-14T02:55:27;12.70;99.90
15916;DHT22;8057;47.830;-3.870;2024-02-14T02:59:37;12.80;99.90
15916;DHT22;8057;47.830;-3.870;2024-02-14T03:03:51;12.80;99.90
15916;DHT22;8057;47.830;-3.870;2024-02-14T03:08:00;12.90;99.90
15916;DHT22;8057;47.830;-3.870;2024-02-14T03:12:10;12.80;99.90
15916;DHT22;8057;47.830;-3.870;2024-02-14T03:16:25;12.80;99.90
15916;DHT22;8057;47.830;-3.870;2024-02-14T03:20:34;12.80;99.90
15916;DHT22;8057;47.830;-3.870;2024-02-14T03:24:43;12.80;99.90
15916;DHT22;8057;47.830;-3.870;2024-02-14T03:28:54;12.80;99.90
15916;DHT22;8057;47.830;-3.870;2024-02-14T03:33:05;12.80;99.90
15916;DHT22;8057;47.830;-3.870;2024-02-14T03:37:15;12.80;99.90
15916;DHT22;8057;47.830;-3.870;2024-02-14T03:41:25;12.80;99.90
15916;DHT22;8057;47.830;-3.870;2024-02-14T03:45:35;12.80;99.90
15916;DHT22;8057;47.830;-3.870;2024-02-14T03:49:45;12.70;99.90
15916;DHT22;8057;47.830;-3.870;2024-02-14T03:53:54;12.60;99.90
15916;DHT22;8057;47.830;-3.870;2024-02-14T03:58:03;12.70;99.90
15916;DHT22;8057;47.830;-3.870;2024-02-14T04:02:14;12.70;99.90
15916;DHT22;8057;47.830;-3.870;2024-02-14T04:06:24;12.70;99.90
15916;DHT22;8057;47.830;-3.870;2024-02-14T04:10:34;12.70;99.90
15916;DHT22;8057;47.830;-3.870;2024-02-14T04:14:43;12.70;99.90
15916;DHT22;8057;47.830;-3.870;2024-02-14T04:18:52;12.70;99.90
15916;DHT22;8057;47.830;-3.870;2024-02-14T04:23:05;12.70;99.90
15916;DHT22;8057;47.830;-3.870;2024-02-14T04:27:14;12.70;99.90
15916;DHT22;8057;47.830;-3.870;2024-02-14T04:31:23;12.60;99.90
15916;DHT22;8057;47.830;-3.870;2024-02-14T04:35:34;12.70;99.90
15916;DHT22;8057;47.830;-3.870;2024-02-14T04:39:44;12.60;99.90
15916;DHT22;8057;47.830;-3.870;2024-02-14T04:43:53;12.60;99.90
15916;DHT22;8057;47.830;-3.870;2024-02-14T04:48:02;12.60;99.90
15916;DHT22;8057;47.830;-3.870;2024-02-14T04:52:11;12.70;99.90
15916;DHT22;8057;47.830;-3.870;2024-02-14T04:56:22;12.70;99.90
15916;DHT22;8057;47.830;-3.870;2024-02-14T05:00:31;12.70;99.90
15916;DHT22;8057;47.830;-3.870;2024-02-14T05:04:40;12.70;99.90
15916;DHT22;8057;47.830;-3.870;2024-02-14T05:08:49;12.80;99.90
15916;DHT22;8057;47.830;-3.870;2024-02-14T05:13:00;12.80;99.90
15916;DHT22;8057;47.830;-3.870;2024-02-14T05:17:09;12.80;99.90
15916;DHT22;8057;47.830;-3.870;2024-02-14T05:21:20;12.90;99.90
15916;DHT22;8057;47.830;-3.870;2024-02-14T05:25:30;12.90;99.90
15916;DHT22;8057;47.830;-3.870;2024-02-14T05:29:41;12.90;99.90
15916;DHT22;8057;47.830;-3.870;2024-02-14T05:33:50;12.90;99.90
15916;DHT22;8057;47.830;-3.870;2024-02-14T05:38:00;12.90;99.90
15916;DHT22;8057;47.830;-3.870;2024-02-14T05:42:09;12.80;99.90
15916;DHT22;8057;47.830;-3.870;2024-02-14T05:46:19;12.90;99.90
15916;DHT22;8057;47.830;-3.870;2024-02-14T05:50:28;12.90;99.90
15916;DHT22;8057;47.830;-3.870;2024-02-14T05:54:38;12.90;99.90
15916;DHT22;8057;47.830;-3.870;2024-02-14T05:58:46;12.90;99.90
15916;DHT22;8057;47.830;-3.870;2024-02-14T06:02:57;12.90;99.90
15916;DHT22;8057;47.830;-3.870;2024-02-14T06:07:06;12.90;99.90
15916;DHT22;8057;47.830;-3.870;2024-02-14T06:11:17;13.00;99.90
15916;DHT22;8057;47.830;-3.870;2024-02-14T06:15:28;13.00;99.90
15916;DHT22;8057;47.830;-3.870;2024-02-14T06:19:38;13.00;99.90
15916;DHT22;8057;47.830;-3.870;2024-02-14T06:23:48;13.00;99.90
15916;DHT22;8057;47.830;-3.870;2024-02-14T06:27:57;13.00;99.90
15916;DHT22;8057;47.830;-3.870;2024-02-14T06:32:06;13.00;99.90
15916;DHT22;8057;47.830;-3.870;2024-02-14T06:36:17;13.00;99.90
15916;DHT22;8057;47.830;-3.870;2024-02-14T06:40:26;13.00;99.90
15916;DHT22;8057;47.830;-3.870;2024-02-14T06:44:37;13.00;99.90
15916;DHT22;8057;47.830;-3.870;2024-02-14T06:48:46;13.00;99.90
15916;DHT22;8057;47.830;-3.870;2024-02-14T06:52:57;12.90;99.90
15916;DHT22;8057;47.830;-3.870;2024-02-14T06:57:08;12.90;99.90
15916;DHT22;8057;47.830;-3.870;2024-02-14T07:01:17;12.90;99.90
15916;DHT22;8057;47.830;-3.870;2024-02-14T07:05:29;12.90;99.90
15916;DHT22;8057;47.830;-3.870;2024-02-14T07:09:40;13.00;99.90
15916;DHT22;8057;47.830;-3.870;2024-02-14T07:13:49;13.00;99.90
15916;DHT22;8057;47.830;-3.870;2024-02-14T07:17:58;13.00;99.90
15916;DHT22;8057;47.830;-3.870;2024-02-14T07:22:08;13.10;99.90
15916;DHT22;8057;47.830;-3.870;2024-02-14T07:26:20;13.00;99.90
15916;DHT22;8057;47.830;-3.870;2024-02-14T07:30:29;13.00;99.90
15916;DHT22;8057;47.830;-3.870;2024-02-14T07:34:39;13.00;99.90
15916;DHT22;8057;47.830;-3.870;2024-02-14T07:38:49;13.00;99.90
15916;DHT22;8057;47.830;-3.870;2024-02-14T07:42:59;13.00;99.90
15916;DHT22;8057;47.830;-3.870;2024-02-14T07:47:10;13.00;99.90
15916;DHT22;8057;47.830;-3.870;2024-02-14T07:51:19;13.00;99.90
15916;DHT22;8057;47.830;-3.870;2024-02-14T07:55:28;13.00;99.90
15916;DHT22;8057;47.830;-3.870;2024-02-14T07:59:39;13.00;99.90
15916;DHT22;8057;47.830;-3.870;2024-02-14T08:03:48;13.00;99.90
15916;DHT22;8057;47.830;-3.870;2024-02-14T08:07:57;13.00;99.90
15916;DHT22;8057;47.830;-3.870;2024-02-14T08:12:07;13.10;99.90
15916;DHT22;8057;47.830;-3.870;2024-02-14T08:16:18;13.10;99.90
15916;DHT22;8057;47.830;-3.870;2024-02-14T08:20:27;13.10;99.90
15916;DHT22;8057;47.830;-3.870;2024-02-14T08:24:36;13.10;99.90
15916;DHT22;8057;47.830;-3.870;2024-02-14T08:28:45;13.20;99.90
15916;DHT22;8057;47.830;-3.870;2024-02-14T08:32:56;13.20;99.90
15916;DHT22;8057;47.830;-3.870;2024-02-14T08:37:05;13.20;99.90
15916;DHT22;8057;47.830;-3.870;2024-02-14T08:41:15;13.20;99.90
15916;DHT22;8057;47.830;-3.870;2024-02-14T08:45:26;13.10;99.90
15916;DHT22;8057;47.830;-3.870;2024-02-14T08:49:40;13.10;99.90
15916;DHT22;8057;47.830;-3.870;2024-02-14T08:53:50;13.20;99.90
15916;DHT22;8057;47.830;-3.870;2024-02-14T08:58:02;13.30;99.90
15916;DHT22;8057;47.830;-3.870;2024-02-14T09:02:11;13.30;99.90
15916;DHT22;8057;47.830;-3.870;2024-02-14T09:06:22;13.30;99.90
15916;DHT22;8057;47.830;-3.870;2024-02-14T09:10:31;13.30;99.90
15916;DHT22;8057;47.830;-3.870;2024-02-14T09:14:41;13.40;99.90
15916;DHT22;8057;47.830;-3.870;2024-02-14T09:18:50;13.30;99.90
15916;DHT22;8057;47.830;-3.870;2024-02-14T09:23:01;13.40;99.90
15916;DHT22;8057;47.830;-3.870;2024-02-14T09:27:11;13.50;99.90
15916;DHT22;8057;47.830;-3.870;2024-02-14T09:31:22;13.50;99.90
15916;DHT22;8057;47.830;-3.870;2024-02-14T09:35:31;13.50;99.90
15916;DHT22;8057;47.830;-3.870;2024-02-14T09:39:42;13.60;99.90
15916;DHT22;8057;47.830;-3.870;2024-02-14T09:43:52;13.70;99.90
15916;DHT22;8057;47.830;-3.870;2024-02-14T09:48:02;13.70;99.90
15916;DHT22;8057;47.830;-3.870;2024-02-14T09:52:13;13.70;99.90
15916;DHT22;8057;47.830;-3.870;2024-02-14T09:56:25;13.80;99.90
15916;DHT22;8057;47.830;-3.870;2024-02-14T10:00:35;13.90;99.90
15916;DHT22;8057;47.830;-3.870;2024-02-14T10:04:44;13.90;99.90
15916;DHT22;8057;47.830;-3.870;2024-02-14T10:08:53;13.90;99.90
15916;DHT22;8057;47.830;-3.870;2024-02-14T10:13:12;13.90;99.90
15916;DHT22;8057;47.830;-3.870;2024-02-14T10:17:25;13.90;99.90
15916;DHT22;8057;47.830;-3.870;2024-02-14T10:21:35;13.90;99.90
15916;DHT22;8057;47.830;-3.870;2024-02-14T10:25:44;13.90;99.90
15916;DHT22;8057;47.830;-3.870;2024-02-14T10:29:58;13.90;99.90
15916;DHT22;8057;47.830;-3.870;2024-02-14T10:34:08;14.00;99.90
15916;DHT22;8057;47.830;-3.870;2024-02-14T10:38:19;14.20;99.90
15916;DHT22;8057;47.830;-3.870;2024-02-14T10:42:29;14.30;99.90
15916;DHT22;8057;47.830;-3.870;2024-02-14T10:46:40;14.70;99.90
15916;DHT22;8057;47.830;-3.870;2024-02-14T10:50:50;15.20;99.90
15916;DHT22;8057;47.830;-3.870;2024-02-14T10:55:03;15.50;99.90
15916;DHT22;8057;47.830;-3.870;2024-02-14T10:59:14;15.50;99.90
15916;DHT22;8057;47.830;-3.870;2024-02-14T11:03:26;15.80;99.90
15916;DHT22;8057;47.830;-3.870;2024-02-14T11:07:36;15.90;99.90
15916;DHT22;8057;47.830;-3.870;2024-02-14T11:11:46;16.00;99.90
15916;DHT22;8057;47.830;-3.870;2024-02-14T11:15:56;16.00;99.90
15916;DHT22;8057;47.830;-3.870;2024-02-14T11:20:16;16.00;99.90
15916;DHT22;8057;47.830;-3.870;2024-02-14T11:24:28;15.90;99.90
15916;DHT22;8057;47.830;-3.870;2024-02-14T11:28:40;15.70;99.90
15916;DHT22;8057;47.830;-3.870;2024-02-14T11:32:49;15.50;99.90
15916;DHT22;8057;47.830;-3.870;2024-02-14T11:37:01;15.50;99.90
15916;DHT22;8057;47.830;-3.870;2024-02-14T11:41:11;15.30;99.90
15916;DHT22;8057;47.830;-3.870;2024-02-14T11:45:22;15.20;99.90
15916;DHT22;8057;47.830;-3.870;2024-02-14T11:49:32;15.20;99.90
15916;DHT22;8057;47.830;-3.870;2024-02-14T11:53:43;15.10;99.90
15916;DHT22;8057;47.830;-3.870;2024-02-14T11:57:52;15.00;99.90
15916;DHT22;8057;47.830;-3.870;2024-02-14T12:02:02;14.80;99.90
15916;DHT22;8057;47.830;-3.870;2024-02-14T12:06:12;14.60;99.90
15916;DHT22;8057;47.830;-3.870;2024-02-14T12:10:24;14.50;99.90
15916;DHT22;8057;47.830;-3.870;2024-02-14T12:14:33;14.50;99.90
15916;DHT22;8057;47.830;-3.870;2024-02-14T12:18:43;14.40;99.90
15916;DHT22;8057;47.830;-3.870;2024-02-14T12:22:52;14.30;99.90
15916;DHT22;8057;47.830;-3.870;2024-02-14T12:27:04;14.20;99.90
15916;DHT22;8057;47.830;-3.870;2024-02-14T12:31:22;14.10;99.90
15916;DHT22;8057;47.830;-3.870;2024-02-14T12:35:31;14.10;99.90
15916;DHT22;8057;47.830;-3.870;2024-02-14T12:39:43;14.20;99.90
15916;DHT22;8057;47.830;-3.870;2024-02-14T12:43:53;14.10;99.90
15916;DHT22;8057;47.830;-3.870;2024-02-14T12:48:03;14.10;99.90
15916;DHT22;8057;47.830;-3.870;2024-02-14T12:52:13;14.10;99.90
15916;DHT22;8057;47.830;-3.870;2024-02-14T12:56:22;14.00;99.90
15916;DHT22;8057;47.830;-3.870;2024-02-14T13:00:34;13.90;99.90
15916;DHT22;8057;47.830;-3.870;2024-02-14T13:04:43;13.90;99.90
15916;DHT22;8057;47.830;-3.870;2024-02-14T13:08:52;13.80;99.90
15916;DHT22;8057;47.830;-3.870;2024-02-14T13:13:03;13.80;99.90
15916;DHT22;8057;47.830;-3.870;2024-02-14T13:17:15;13.70;99.90
15916;DHT22;8057;47.830;-3.870;2024-02-14T13:21:24;13.70;99.90
15916;DHT22;8057;47.830;-3.870;2024-02-14T13:25:33;13.80;99.90
15916;DHT22;8057;47.830;-3.870;2024-02-14T13:29:43;13.80;99.90
15916;DHT22;8057;47.830;-3.870;2024-02-14T13:33:54;13.70;99.90
15916;DHT22;8057;47.830;-3.870;2024-02-14T13:38:04;13.80;99.90
15916;DHT22;8057;47.830;-3.870;2024-02-14T13:42:13;13.70;99.90
15916;DHT22;8057;47.830;-3.870;2024-02-14T13:46:22;13.70;99.90
15916;DHT22;8057;47.830;-3.870;2024-02-14T13:50:35;13.60;99.90
15916;DHT22;8057;47.830;-3.870;2024-02-14T13:54:48;13.70;99.90
15916;DHT22;8057;47.830;-3.870;2024-02-14T13:59:18;13.60;99.90
15916;DHT22;8057;47.830;-3.870;2024-02-14T14:03:28;13.60;99.90
15916;DHT22;8057;47.830;-3.870;2024-02-14T14:07:39;13.60;99.90
15916;DHT22;8057;47.830;-3.870;2024-02-14T14:12:04;13.50;99.90
15916;DHT22;8057;47.830;-3.870;2024-02-14T14:16:14;13.50;99.90
15916;DHT22;8057;47.830;-3.870;2024-02-14T14:20:23;13.50;99.90
15916;DHT22;8057;47.830;-3.870;2024-02-14T14:24:34;13.50;99.90
15916;DHT22;8057;47.830;-3.870;2024-02-14T14:28:43;13.50;99.90
15916;DHT22;8057;47.830;-3.870;2024-02-14T14:32:52;13.60;99.90
15916;DHT22;8057;47.830;-3.870;2024-02-14T14:37:02;13.60;99.90
15916;DHT22;8057;47.830;-3.870;2024-02-14T14:41:12;13.50;99.90
15916;DHT22;8057;47.830;-3.870;2024-02-14T14:45:22;13.50;99.90
15916;DHT22;8057;47.830;-3.870;2024-02-14T14:49:31;13.50;99.90
15916;DHT22;8057;47.830;-3.870;2024-02-14T14:53:40;13.50;99.90
15916;DHT22;8057;47.830;-3.870;2024-02-14T14:57:51;13.40;99.90
15916;DHT22;8057;47.830;-3.870;2024-02-14T15:02:04;13.40;99.90
15916;DHT22;8057;47.830;-3.870;2024-02-14T15:06:14;13.40;99.90
15916;DHT22;8057;47.830;-3.870;2024-02-14T15:10:23;13.40;99.90
15916;DHT22;8057;47.830;-3.870;2024-02-14T15:14:34;13.50;99.90
15916;DHT22;8057;47.830;-3.870;2024-02-14T15:18:43;13.50;99.90
15916;DHT22;8057;47.830;-3.870;2024-02-14T15:22:53;13.50;99.90
15916;DHT22;8057;47.830;-3.870;2024-02-14T15:27:03;13.50;99.90
15916;DHT22;8057;47.830;-3.870;2024-02-14T15:31:15;13.50;99.90
15916;DHT22;8057;47.830;-3.870;2024-02-14T15:35:41;13.50;99.90
15916;DHT22;8057;47.830;-3.870;2024-02-14T15:39:50;13.40;99.90
15916;DHT22;8057;47.830;-3.870;2024-02-14T15:43:59;13.40;99.90
15916;DHT22;8057;47.830;-3.870;2024-02-14T15:48:11;13.30;99.90
15916;DHT22;8057;47.830;-3.870;2024-02-14T15:52:23;13.30;99.90
15916;DHT22;8057;47.830;-3.870;2024-02-14T15:56:32;13.30;99.90
15916;DHT22;8057;47.830;-3.870;2024-02-14T16:00:41;13.30;99.90
15916;DHT22;8057;47.830;-3.870;2024-02-14T16:04:52;13.30;99.90
15916;DHT22;8057;47.830;-3.870;2024-02-14T16:09:01;13.30;99.90
15916;DHT22;8057;47.830;-3.870;2024-02-14T16:13:10;13.30;99.90
15916;DHT22;8057;47.830;-3.870;2024-02-14T16:17:20;13.30;99.90
15916;DHT22;8057;47.830;-3.870;2024-02-14T16:21:30;13.30;99.90
15916;DHT22;8057;47.830;-3.870;2024-02-14T16:25:40;13.30;99.90
15916;DHT22;8057;47.830;-3.870;2024-02-14T16:29:49;13.30;99.90
15916;DHT22;8057;47.830;-3.870;2024-02-14T16:33:59;13.30;99.90
15916;DHT22;8057;47.830;-3.870;2024-02-14T16:38:10;13.30;99.90
15916;DHT22;8057;47.830;-3.870;2024-02-14T16:42:19;13.30;99.90
15916;DHT22;8057;47.830;-3.870;2024-02-14T16:46:29;13.30;99.90
15916;DHT22;8057;47.830;-3.870;2024-02-14T16:50:39;13.30;99.90
15916;DHT22;8057;47.830;-3.870;2024-02-14T16:54:51;13.30;99.90
15916;DHT22;8057;47.830;-3.870;2024-02-14T16:59:00;13.20;99.90
15916;DHT22;8057;47.830;-3.870;2024-02-14T17:03:10;13.20;99.90
15916;DHT22;8057;47.830;-3.870;2024-02-14T17:07:23;13.20;99.90
15916;DHT22;8057;47.830;-3.870;2024-02-14T17:11:35;13.20;99.90
15916;DHT22;8057;47.830;-3.870;2024-02-14T17:15:45;13.20;99.90
15916;DHT22;8057;47.830;-3.870;2024-02-14T17:19:54;13.20;99.90
15916;DHT22;8057;47.830;-3.870;2024-02-14T17:24:04;13.30;99.90
15916;DHT22;8057;47.830;-3.870;2024-02-14T17:28:15;13.30;99.90
15916;DHT22;8057;47.830;-3.870;2024-02-14T17:32:24;13.30;99.90
15916;DHT22;8057;47.830;-3.870;2024-02-14T17:36:45;13.30;99.90
15916;DHT22;8057;47.830;-3.870;2024-02-14T17:40:55;13.30;99.90
15916;DHT22;8057;47.830;-3.870;2024-02-14T17:45:07;13.30;99.90
15916;DHT22;8057;47.830;-3.870;2024-02-14T17:49:17;13.30;99.90
15916;DHT22;8057;47.830;-3.870;2024-02-14T17:53:26;13.30;99.90
15916;DHT22;8057;47.830;-3.870;2024-02-14T17:57:36;13.30;99.90
15916;DHT22;8057;47.830;-3.870;2024-02-14T18:01:47;13.30;99.90
15916;DHT22;8057;47.830;-3.870;2024-02-14T18:05:56;13.40;99.90
15916;DHT22;8057;47.830;-3.870;2024-02-14T18:10:06;13.40;99.90
15916;DHT22;8057;47.830;-3.870;2024-02-14T18:14:15;13.40;99.90
15916;DHT22;8057;47.830;-3.870;2024-02-14T18:18:26;13.30;99.90
15916;DHT22;8057;47.830;-3.870;2024-02-14T18:22:40;13.40;99.90
15916;DHT22;8057;47.830;-3.870;2024-02-14T18:26:49;13.40;99.90
15916;DHT22;8057;47.830;-3.870;2024-02-14T18:30:59;13.30;99.90
15916;DHT22;8057;47.830;-3.870;2024-02-14T18:35:09;13.30;99.90
15916;DHT22;8057;47.830;-3.870;2024-02-14T18:39:19;13.30;99.90
15916;DHT22;8057;47.830;-3.870;2024-02-14T18:43:29;13.30;99.90
15916;DHT22;8057;47.830;-3.870;2024-02-14T18:47:39;13.30;99.90
15916;DHT22;8057;47.830;-3.870;2024-02-14T18:51:51;13.40;99.90
15916;DHT22;8057;47.830;-3.870;2024-02-14T18:56:00;13.40;99.90
15916;DHT22;8057;47.830;-3.870;2024-02-14T19:00:11;13.40;99.90
15916;DHT22;8057;47.830;-3.870;2024-02-14T19:04:20;13.40;99.90
15916;DHT22;8057;47.830;-3.870;2024-02-14T19:08:33;13.40;99.90
15916;DHT22;8057;47.830;-3.870;2024-02-14T19:12:42;13.40;99.90
15916;DHT22;8057;47.830;-3.870;2024-02-14T19:16:51;13.40;99.90
15916;DHT22;8057;47.830;-3.870;2024-02-14T19:21:00;13.40;99.90
15916;DHT22;8057;47.830;-3.870;2024-02-14T19:25:11;13.50;99.90
15916;DHT22;8057;47.830;-3.870;2024-02-14T19:29:20;13.50;99.90
15916;DHT22;8057;47.830;-3.870;2024-02-14T19:33:31;13.40;99.90
15916;DHT22;8057;47.830;-3.870;2024-02-14T19:37:41;13.40;99.90
15916;DHT22;8057;47.830;-3.870;2024-02-14T19:41:52;13.40;99.90
15916;DHT22;8057;47.830;-3.870;2024-02-14T19:46:01;13.40;99.90
15916;DHT22;8057;47.830;-3.870;2024-02-14T19:50:10;13.50;99.90
15916;DHT22;8057;47.830;-3.870;2024-02-14T19:54:20;13.50;99.90
15916;DHT22;8057;47.830;-3.870;2024-02-14T19:58:31;13.50;99.90
15916;DHT22;8057;47.830;-3.870;2024-02-14T20:02:40;13.50;99.90
15916;DHT22;8057;47.830;-3.870;2024-02-14T20:06:50;13.40;99.90
15916;DHT22;8057;47.830;-3.870;2024-02-14T20:11:03;13.40;99.90
15916;DHT22;8057;47.830;-3.870;2024-02-14T20:15:15;13.40;99.90
15916;DHT22;8057;47.830;-3.870;2024-02-14T20:19:24;13.40;99.90
15916;DHT22;8057;47.830;-3.870;2024-02-14T20:23:33;13.50;99.90
15916;DHT22;8057;47.830;-3.870;2024-02-14T20:27:43;13.50;99.90
15916;DHT22;8057;47.830;-3.870;2024-02-14T20:31:54;13.60;99.90
15916;DHT22;8057;47.830;-3.870;2024-02-14T20:36:04;13.60;99.90
15916;DHT22;8057;47.830;-3.870;2024-02-14T20:40:15;13.70;99.90
15916;DHT22;8057;47.830;-3.870;2024-02-14T20:44:24;13.70;99.90
15916;DHT22;8057;47.830;-3.870;2024-02-14T20:48:36;13.80;99.90
15916;DHT22;8057;47.830;-3.870;2024-02-14T20:52:46;13.70;99.90
15916;DHT22;8057;47.830;-3.870;2024-02-14T20:56:55;13.70;99.90
15916;DHT22;8057;47.830;-3.870;2024-02-14T21:01:05;13.60;99.90
15916;DHT22;8057;47.830;-3.870;2024-02-14T21:05:18;13.60;99.90
15916;DHT22;8057;47.830;-3.870;2024-02-14T21:09:27;13.70;99.90
15916;DHT22;8057;47.830;-3.870;2024-02-14T21:13:37;13.70;99.90
15916;DHT22;8057;47.830;-3.870;2024-02-14T21:17:46;13.70;99.90
15916;DHT22;8057;47.830;-3.870;2024-02-14T21:21:57;13.70;99.90
15916;DHT22;8057;47.830;-3.870;2024-02-14T21:26:07;13.80;99.90
15916;DHT22;8057;47.830;-3.870;2024-02-14T21:30:16;13.80;99.90
15916;DHT22;8057;47.830;-3.870;2024-02-14T21:34:25;13.80;99.90
15916;DHT22;8057;47.830;-3.870;2024-02-14T21:38:37;13.80;99.90
15916;DHT22;8057;47.830;-3.870;2024-02-14T21:42:46;13.90;99.90
15916;DHT22;8057;47.830;-3.870;2024-02-14T21:46:55;13.90;99.90
15916;DHT22;8057;47.830;-3.870;2024-02-14T21:51:05;13.90;99.90
15916;DHT22;8057;47.830;-3.870;2024-02-14T21:55:19;13.90;99.90
15916;DHT22;8057;47.830;-3.870;2024-02-14T21:59:28;13.80;99.90
15916;DHT22;8057;47.830;-3.870;2024-02-14T22:03:37;13.80;99.90
15916;DHT22;8057;47.830;-3.870;2024-02-14T22:07:47;13.70;99.90
15916;DHT22;8057;47.830;-3.870;2024-02-14T22:11:57;13.70;99.90
15916;DHT22;8057;47.830;-3.870;2024-02-14T22:16:07;13.70;99.90
15916;DHT22;8057;47.830;-3.870;2024-02-14T22:20:18;13.60;99.90
15916;DHT22;8057;47.830;-3.870;2024-02-14T22:24:28;13.60;99.90
15916;DHT22;8057;47.830;-3.870;2024-02-14T22:28:41;13.60;99.90
15916;DHT22;8057;47.830;-3.870;2024-02-14T22:32:50;13.50;99.90
15916;DHT22;8057;47.830;-3.870;2024-02-14T22:37:00;13.50;99.90
15916;DHT22;8057;47.830;-3.870;2024-02-14T22:41:09;13.50;99.90
15916;DHT22;8057;47.830;-3.870;2024-02-14T22:45:22;13.50;99.90
15916;DHT22;8057;47.830;-3.870;2024-02-14T22:49:31;13.40;99.90
15916;DHT22;8057;47.830;-3.870;2024-02-14T22:53:40;13.30;99.90
15916;DHT22;8057;47.830;-3.870;2024-02-14T22:57:50;13.30;99.90
15916;DHT22;8057;47.830;-3.870;2024-02-14T23:02:01;13.30;99.90
15916;DHT22;8057;47.830;-3.870;2024-02-14T23:06:10;13.30;99.90
15916;DHT22;8057;47.830;-3.870;2024-02-14T23:10:21;13.30;99.90
15916;DHT22;8057;47.830;-3.870;2024-02-14T23:14:32;13.30;99.90
15916;DHT22;8057;47.830;-3.870;2024-02-14T23:18:42;13.30;99.90
15916;DHT22;8057;47.830;-3.870;2024-02-14T23:22:54;13.30;99.90
15916;DHT22;8057;47.830;-3.870;2024-02-14T23:27:04;13.30;99.90
15916;DHT22;8057;47.830;-3.870;2024-02-14T23:31:13;13.30;99.90
15916;DHT22;8057;47.830;-3.870;2024-02-14T23:35:24;13.30;99.90
15916;DHT22;8057;47.830;-3.870;2024-02-14T23:39:34;13.30;99.90
15916;DHT22;8057;47.830;-3.870;2024-02-14T23:43:43;13.30;99.90
15916;DHT22;8057;47.830;-3.870;2024-02-14T23:47:52;13.40;99.90
15916;DHT22;8057;47.830;-3.870;2024-02-14T23:52:03;13.40;99.90
15916;DHT22;8057;47.830;-3.870;2024-02-14T23:56:13;13.40;99.90
